TimePST,TemperatureF,Dew PointF,Humidity,Sea Level PressureIn,VisibilityMPH,Wind Direction,Wind SpeedMPH,Gust SpeedMPH,PrecipitationIn,Events,Conditions,WindDirDegrees,DateUTC
12:53 AM,50.0,30.0,46,30.08,5.0,Calm,Calm,-,N/A,,Haze,0,2014-01-01 08:53:00
1:53 AM,48.0,30.0,50,30.08,5.0,Calm,Calm,-,N/A,,Haze,0,2014-01-01 09:53:00
2:53 AM,48.0,27.0,44,30.08,5.0,West,4.6,-,N/A,,Haze,260,2014-01-01 10:53:00
3:53 AM,46.9,27.0,46,30.07,7.0,Calm,Calm,-,N/A,,Clear,0,2014-01-01 11:53:00
4:53 AM,46.9,27.0,46,30.07,7.0,Calm,Calm,-,N/A,,Clear,0,2014-01-01 12:53:00
5:53 AM,45.0,25.0,46,30.07,10.0,Calm,Calm,-,N/A,,Clear,0,2014-01-01 13:53:00
6:53 AM,45.0,25.0,46,30.08,10.0,WSW,3.5,-,N/A,,Clear,240,2014-01-01 14:53:00
7:53 AM,48.0,26.1,42,30.09,10.0,Calm,Calm,-,N/A,,Clear,0,2014-01-01 15:53:00
8:53 AM,55.0,25.0,31,30.10,9.0,Calm,Calm,-,N/A,,Clear,0,2014-01-01 16:53:00
9:53 AM,61.0,25.0,25,30.11,8.0,Calm,Calm,-,N/A,,Clear,0,2014-01-01 17:53:00
10:53 AM,66.9,23.0,19,30.09,10.0,Calm,Calm,-,N/A,,Clear,0,2014-01-01 18:53:00
11:53 AM,72.0,23.0,16,30.05,10.0,SSE,3.5,-,N/A,,Clear,150,2014-01-01 19:53:00
12:53 PM,75.0,23.0,14,30.03,10.0,SE,5.8,-,N/A,,Clear,140,2014-01-01 20:53:00
1:53 PM,75.9,19.0,12,30.02,10.0,ESE,9.2,-,N/A,,Clear,110,2014-01-01 21:53:00
2:53 PM,75.9,24.1,15,30.02,10.0,Calm,Calm,-,N/A,,Clear,0,2014-01-01 22:53:00
3:53 PM,75.9,24.1,15,30.01,10.0,SSE,3.5,-,N/A,,Clear,150,2014-01-01 23:53:00
4:53 PM,73.0,30.0,20,30.02,10.0,ESE,3.5,-,N/A,,Clear,110,2014-01-02 00:53:00
5:53 PM,68.0,37.9,33,30.04,8.0,SE,3.5,-,N/A,,Clear,130,2014-01-02 01:53:00
6:53 PM,64.9,28.9,26,30.05,10.0,Calm,Calm,-,N/A,,Clear,0,2014-01-02 02:53:00
7:53 PM,60.1,28.0,30,30.05,10.0,North,3.5,-,N/A,,Clear,350,2014-01-02 03:53:00
8:53 PM,59.0,27.0,29,30.06,10.0,Calm,Calm,-,N/A,,Clear,0,2014-01-02 04:53:00
9:53 PM,55.9,30.0,37,30.07,10.0,Calm,Calm,-,N/A,,Clear,0,2014-01-02 05:53:00
10:53 PM,55.9,25.0,30,30.07,10.0,NNW,4.6,-,N/A,,Clear,330,2014-01-02 06:53:00
11:53 PM,55.0,26.1,33,30.07,10.0,Calm,Calm,-,N/A,,Clear,0,2014-01-02 07:53:00